sensor_id;sensor_type;location;lat;lon;timestamp;P1;durP1;ratioP1;P2;durP2;ratioP2
21999;SDS011;11164;48.818;2.322;2023-04-15T00:00:33;14.55;;;8.52;;
21999;SDS011;11164;48.818;2.322;2023-04-15T00:02:59;13.68;;;8.45;;
21999;SDS011;11164;48.818;2.322;2023-04-15T00:05:26;13.25;;;8.10;;
21999;SDS011;11164;48.818;2.322;2023-04-15T00:07:54;13.40;;;8.63;;
21999;SDS011;11164;48.818;2.322;2023-04-15T00:10:19;12.50;;;8.05;;
21999;SDS011;11164;48.818;2.322;2023-04-15T00:12:44;13.75;;;7.93;;
21999;SDS011;11164;48.818;2.322;2023-04-15T00:15:10;14.68;;;8.00;;
21999;SDS011;11164;48.818;2.322;2023-04-15T00:17:36;14.10;;;8.13;;
21999;SDS011;11164;48.818;2.322;2023-04-15T00:20:03;11.43;;;8.23;;
21999;SDS011;11164;48.818;2.322;2023-04-15T00:22:30;13.18;;;7.93;;
21999;SDS011;11164;48.818;2.322;2023-04-15T00:24:56;14.90;;;8.10;;
21999;SDS011;11164;48.818;2.322;2023-04-15T00:27:21;13.38;;;8.30;;
21999;SDS011;11164;48.818;2.322;2023-04-15T00:29:47;12.75;;;7.78;;
21999;SDS011;11164;48.818;2.322;2023-04-15T00:32:12;13.13;;;8.13;;
21999;SDS011;11164;48.818;2.322;2023-04-15T00:34:37;13.13;;;8.25;;
21999;SDS011;11164;48.818;2.322;2023-04-15T00:37:03;13.20;;;7.78;;
21999;SDS011;11164;48.818;2.322;2023-04-15T00:39:28;12.23;;;8.07;;
21999;SDS011;11164;48.818;2.322;2023-04-15T00:41:53;12.20;;;8.07;;
21999;SDS011;11164;48.818;2.322;2023-04-15T00:44:19;14.43;;;7.93;;
21999;SDS011;11164;48.818;2.322;2023-04-15T00:46:47;12.93;;;8.05;;
21999;SDS011;11164;48.818;2.322;2023-04-15T00:49:15;14.80;;;8.00;;
21999;SDS011;11164;48.818;2.322;2023-04-15T00:51:42;11.75;;;8.13;;
21999;SDS011;11164;48.818;2.322;2023-04-15T00:54:08;14.73;;;7.97;;
21999;SDS011;11164;48.818;2.322;2023-04-15T00:56:34;14.60;;;8.75;;
21999;SDS011;11164;48.818;2.322;2023-04-15T00:59:02;12.68;;;8.00;;
21999;SDS011;11164;48.818;2.322;2023-04-15T01:01:28;14.98;;;8.85;;
21999;SDS011;11164;48.818;2.322;2023-04-15T01:03:54;15.55;;;8.68;;
21999;SDS011;11164;48.818;2.322;2023-04-15T01:06:22;13.57;;;8.27;;
21999;SDS011;11164;48.818;2.322;2023-04-15T01:08:47;16.45;;;8.90;;
21999;SDS011;11164;48.818;2.322;2023-04-15T01:11:12;13.85;;;8.88;;
21999;SDS011;11164;48.818;2.322;2023-04-15T01:13:39;15.55;;;8.60;;
21999;SDS011;11164;48.818;2.322;2023-04-15T01:16:05;18.08;;;9.13;;
21999;SDS011;11164;48.818;2.322;2023-04-15T01:18:32;15.13;;;9.75;;
21999;SDS011;11164;48.818;2.322;2023-04-15T01:20:59;14.60;;;9.50;;
21999;SDS011;11164;48.818;2.322;2023-04-15T01:23:26;13.90;;;9.25;;
21999;SDS011;11164;48.818;2.322;2023-04-15T01:25:52;12.93;;;8.15;;
21999;SDS011;11164;48.818;2.322;2023-04-15T01:28:17;13.50;;;8.50;;
21999;SDS011;11164;48.818;2.322;2023-04-15T01:30:43;13.10;;;8.82;;
21999;SDS011;11164;48.818;2.322;2023-04-15T01:33:08;12.75;;;9.45;;
21999;SDS011;11164;48.818;2.322;2023-04-15T01:35:34;14.77;;;9.80;;
21999;SDS011;11164;48.818;2.322;2023-04-15T01:38:04;15.07;;;9.98;;
21999;SDS011;11164;48.818;2.322;2023-04-15T01:40:30;16.48;;;10.00;;
21999;SDS011;11164;48.818;2.322;2023-04-15T01:42:56;14.10;;;10.35;;
21999;SDS011;11164;48.818;2.322;2023-04-15T01:45:21;13.57;;;9.20;;
21999;SDS011;11164;48.818;2.322;2023-04-15T01:47:47;14.02;;;9.50;;
21999;SDS011;11164;48.818;2.322;2023-04-15T01:50:13;14.05;;;9.10;;
21999;SDS011;11164;48.818;2.322;2023-04-15T01:52:39;13.80;;;9.38;;
21999;SDS011;11164;48.818;2.322;2023-04-15T01:55:05;12.85;;;9.15;;
21999;SDS011;11164;48.818;2.322;2023-04-15T01:57:32;13.25;;;8.60;;
21999;SDS011;11164;48.818;2.322;2023-04-15T01:59:58;12.35;;;8.18;;
21999;SDS011;11164;48.818;2.322;2023-04-15T02:02:23;9.25;;;5.95;;
21999;SDS011;11164;48.818;2.322;2023-04-15T02:04:49;8.10;;;5.80;;
21999;SDS011;11164;48.818;2.322;2023-04-15T02:07:15;6.93;;;4.70;;
21999;SDS011;11164;48.818;2.322;2023-04-15T02:09:40;8.85;;;5.78;;
21999;SDS011;11164;48.818;2.322;2023-04-15T02:12:05;10.20;;;5.88;;
21999;SDS011;11164;48.818;2.322;2023-04-15T02:14:31;7.18;;;4.68;;
21999;SDS011;11164;48.818;2.322;2023-04-15T02:16:56;6.40;;;4.03;;
21999;SDS011;11164;48.818;2.322;2023-04-15T02:19:21;6.15;;;4.30;;
21999;SDS011;11164;48.818;2.322;2023-04-15T02:21:47;5.82;;;3.80;;
21999;SDS011;11164;48.818;2.322;2023-04-15T02:24:12;6.25;;;3.72;;
21999;SDS011;11164;48.818;2.322;2023-04-15T02:26:37;7.53;;;4.13;;
21999;SDS011;11164;48.818;2.322;2023-04-15T02:29:03;5.68;;;3.70;;
21999;SDS011;11164;48.818;2.322;2023-04-15T02:31:28;7.00;;;3.67;;
21999;SDS011;11164;48.818;2.322;2023-04-15T02:33:54;8.65;;;4.50;;
21999;SDS011;11164;48.818;2.322;2023-04-15T02:36:19;6.38;;;4.38;;
21999;SDS011;11164;48.818;2.322;2023-04-15T02:38:45;6.78;;;4.57;;
21999;SDS011;11164;48.818;2.322;2023-04-15T02:41:10;8.15;;;4.43;;
21999;SDS011;11164;48.818;2.322;2023-04-15T02:43:36;8.68;;;5.72;;
21999;SDS011;11164;48.818;2.322;2023-04-15T02:46:02;8.38;;;5.63;;
21999;SDS011;11164;48.818;2.322;2023-04-15T02:48:28;9.45;;;6.40;;
21999;SDS011;11164;48.818;2.322;2023-04-15T02:50:53;9.32;;;6.43;;
21999;SDS011;11164;48.818;2.322;2023-04-15T02:53:18;10.57;;;7.00;;
21999;SDS011;11164;48.818;2.322;2023-04-15T02:55:44;11.77;;;7.95;;
21999;SDS011;11164;48.818;2.322;2023-04-15T02:58:10;12.30;;;7.65;;
21999;SDS011;11164;48.818;2.322;2023-04-15T03:00:35;11.93;;;7.93;;
21999;SDS011;11164;48.818;2.322;2023-04-15T03:03:02;14.65;;;8.80;;
21999;SDS011;11164;48.818;2.322;2023-04-15T03:05:28;13.02;;;8.65;;
21999;SDS011;11164;48.818;2.322;2023-04-15T03:07:53;13.00;;;8.05;;
21999;SDS011;11164;48.818;2.322;2023-04-15T03:10:19;12.40;;;7.75;;
21999;SDS011;11164;48.818;2.322;2023-04-15T03:12:45;12.70;;;8.50;;
21999;SDS011;11164;48.818;2.322;2023-04-15T03:15:10;14.95;;;7.80;;
21999;SDS011;11164;48.818;2.322;2023-04-15T03:17:36;12.40;;;7.78;;
21999;SDS011;11164;48.818;2.322;2023-04-15T03:20:01;13.52;;;7.88;;
21999;SDS011;11164;48.818;2.322;2023-04-15T03:22:29;12.75;;;7.88;;
21999;SDS011;11164;48.818;2.322;2023-04-15T03:24:55;11.50;;;7.55;;
21999;SDS011;11164;48.818;2.322;2023-04-15T03:27:21;11.32;;;7.13;;
21999;SDS011;11164;48.818;2.322;2023-04-15T03:29:46;10.63;;;6.85;;
21999;SDS011;11164;48.818;2.322;2023-04-15T03:32:11;9.55;;;6.30;;
21999;SDS011;11164;48.818;2.322;2023-04-15T03:34:39;10.18;;;6.63;;
21999;SDS011;11164;48.818;2.322;2023-04-15T03:37:04;9.27;;;5.95;;
21999;SDS011;11164;48.818;2.322;2023-04-15T03:39:29;8.48;;;5.45;;
21999;SDS011;11164;48.818;2.322;2023-04-15T03:41:55;8.93;;;5.70;;
21999;SDS011;11164;48.818;2.322;2023-04-15T03:44:21;8.75;;;6.25;;
21999;SDS011;11164;48.818;2.322;2023-04-15T03:46:47;7.85;;;5.28;;
21999;SDS011;11164;48.818;2.322;2023-04-15T03:49:12;8.13;;;5.82;;
21999;SDS011;11164;48.818;2.322;2023-04-15T03:51:37;8.90;;;4.20;;
21999;SDS011;11164;48.818;2.322;2023-04-15T03:54:03;7.00;;;4.53;;
21999;SDS011;11164;48.818;2.322;2023-04-15T03:56:28;7.85;;;4.78;;
21999;SDS011;11164;48.818;2.322;2023-04-15T03:58:53;7.18;;;4.15;;
21999;SDS011;11164;48.818;2.322;2023-04-15T04:01:19;6.40;;;3.83;;
21999;SDS011;11164;48.818;2.322;2023-04-15T04:03:45;6.78;;;3.28;;
21999;SDS011;11164;48.818;2.322;2023-04-15T04:06:10;7.75;;;4.10;;
21999;SDS011;11164;48.818;2.322;2023-04-15T04:08:36;8.40;;;3.42;;
21999;SDS011;11164;48.818;2.322;2023-04-15T04:11:02;4.28;;;2.80;;
21999;SDS011;11164;48.818;2.322;2023-04-15T04:13:27;5.00;;;3.15;;
21999;SDS011;11164;48.818;2.322;2023-04-15T04:15:53;7.07;;;3.15;;
21999;SDS011;11164;48.818;2.322;2023-04-15T04:18:18;6.20;;;3.67;;
21999;SDS011;11164;48.818;2.322;2023-04-15T04:20:44;7.15;;;4.18;;
21999;SDS011;11164;48.818;2.322;2023-04-15T04:23:09;7.93;;;4.90;;
21999;SDS011;11164;48.818;2.322;2023-04-15T04:25:35;7.90;;;5.30;;
21999;SDS011;11164;48.818;2.322;2023-04-15T04:28:00;10.13;;;5.63;;
21999;SDS011;11164;48.818;2.322;2023-04-15T04:30:26;6.93;;;4.40;;
21999;SDS011;11164;48.818;2.322;2023-04-15T04:32:51;8.40;;;5.13;;
21999;SDS011;11164;48.818;2.322;2023-04-15T04:35:16;8.43;;;5.80;;
21999;SDS011;11164;48.818;2.322;2023-04-15T04:37:41;8.75;;;5.47;;
21999;SDS011;11164;48.818;2.322;2023-04-15T04:40:07;8.77;;;6.03;;
21999;SDS011;11164;48.818;2.322;2023-04-15T04:42:33;8.85;;;5.20;;
21999;SDS011;11164;48.818;2.322;2023-04-15T04:44:59;7.65;;;5.68;;
21999;SDS011;11164;48.818;2.322;2023-04-15T04:47:24;6.50;;;3.85;;
21999;SDS011;11164;48.818;2.322;2023-04-15T04:49:49;5.18;;;3.90;;
21999;SDS011;11164;48.818;2.322;2023-04-15T04:52:15;5.75;;;3.58;;
21999;SDS011;11164;48.818;2.322;2023-04-15T04:54:40;5.03;;;3.15;;
21999;SDS011;11164;48.818;2.322;2023-04-15T04:57:05;4.35;;;3.13;;
21999;SDS011;11164;48.818;2.322;2023-04-15T04:59:32;3.90;;;2.17;;
21999;SDS011;11164;48.818;2.322;2023-04-15T05:01:57;4.25;;;2.60;;
21999;SDS011;11164;48.818;2.322;2023-04-15T05:04:23;3.72;;;2.30;;
21999;SDS011;11164;48.818;2.322;2023-04-15T05:06:48;3.97;;;1.85;;
21999;SDS011;11164;48.818;2.322;2023-04-15T05:09:14;4.38;;;1.80;;
21999;SDS011;11164;48.818;2.322;2023-04-15T05:11:40;3.60;;;1.90;;
21999;SDS011;11164;48.818;2.322;2023-04-15T05:14:05;3.40;;;1.92;;
21999;SDS011;11164;48.818;2.322;2023-04-15T05:16:30;3.67;;;2.00;;
21999;SDS011;11164;48.818;2.322;2023-04-15T05:18:56;5.10;;;2.05;;
21999;SDS011;11164;48.818;2.322;2023-04-15T05:21:21;3.70;;;2.40;;
21999;SDS011;11164;48.818;2.322;2023-04-15T05:23:47;5.70;;;2.50;;
21999;SDS011;11164;48.818;2.322;2023-04-15T05:26:12;5.43;;;2.45;;
21999;SDS011;11164;48.818;2.322;2023-04-15T05:28:38;3.55;;;2.10;;
21999;SDS011;11164;48.818;2.322;2023-04-15T05:31:03;4.85;;;2.22;;
21999;SDS011;11164;48.818;2.322;2023-04-15T05:33:28;4.50;;;2.65;;
21999;SDS011;11164;48.818;2.322;2023-04-15T05:35:54;4.57;;;2.35;;
21999;SDS011;11164;48.818;2.322;2023-04-15T05:38:19;5.25;;;2.42;;
21999;SDS011;11164;48.818;2.322;2023-04-15T05:40:44;3.55;;;1.92;;
21999;SDS011;11164;48.818;2.322;2023-04-15T05:43:10;4.85;;;2.13;;
21999;SDS011;11164;48.818;2.322;2023-04-15T05:45:35;4.82;;;2.70;;
21999;SDS011;11164;48.818;2.322;2023-04-15T05:48:00;3.63;;;2.08;;
21999;SDS011;11164;48.818;2.322;2023-04-15T05:50:26;3.92;;;2.20;;
21999;SDS011;11164;48.818;2.322;2023-04-15T05:52:51;4.07;;;2.28;;
21999;SDS011;11164;48.818;2.322;2023-04-15T05:55:16;3.33;;;1.90;;
21999;SDS011;11164;48.818;2.322;2023-04-15T05:57:42;5.20;;;1.90;;
21999;SDS011;11164;48.818;2.322;2023-04-15T06:00:07;3.28;;;1.80;;
21999;SDS011;11164;48.818;2.322;2023-04-15T06:02:34;3.17;;;1.65;;
21999;SDS011;11164;48.818;2.322;2023-04-15T06:04:59;3.10;;;1.70;;
21999;SDS011;11164;48.818;2.322;2023-04-15T06:07:24;2.85;;;1.50;;
21999;SDS011;11164;48.818;2.322;2023-04-15T06:09:50;3.00;;;1.45;;
21999;SDS011;11164;48.818;2.322;2023-04-15T06:12:16;2.83;;;1.42;;
21999;SDS011;11164;48.818;2.322;2023-04-15T06:14:41;2.72;;;1.23;;
21999;SDS011;11164;48.818;2.322;2023-04-15T06:17:06;2.88;;;1.50;;
21999;SDS011;11164;48.818;2.322;2023-04-15T06:19:32;2.75;;;1.35;;
21999;SDS011;11164;48.818;2.322;2023-04-15T06:21:58;3.05;;;1.60;;
21999;SDS011;11164;48.818;2.322;2023-04-15T06:24:24;3.10;;;1.30;;
21999;SDS011;11164;48.818;2.322;2023-04-15T06:26:49;3.20;;;1.60;;
21999;SDS011;11164;48.818;2.322;2023-04-15T06:29:15;2.60;;;1.20;;
21999;SDS011;11164;48.818;2.322;2023-04-15T06:31:40;4.30;;;1.73;;
21999;SDS011;11164;48.818;2.322;2023-04-15T06:34:05;2.70;;;1.42;;
21999;SDS011;11164;48.818;2.322;2023-04-15T06:36:31;2.67;;;1.33;;
21999;SDS011;11164;48.818;2.322;2023-04-15T06:38:56;2.97;;;1.60;;
21999;SDS011;11164;48.818;2.322;2023-04-15T06:41:21;3.35;;;1.83;;
21999;SDS011;11164;48.818;2.322;2023-04-15T06:43:47;2.97;;;1.35;;
21999;SDS011;11164;48.818;2.322;2023-04-15T06:46:12;3.15;;;1.70;;
21999;SDS011;11164;48.818;2.322;2023-04-15T06:48:37;3.63;;;1.80;;
21999;SDS011;11164;48.818;2.322;2023-04-15T06:51:03;3.53;;;1.48;;
21999;SDS011;11164;48.818;2.322;2023-04-15T06:53:29;3.70;;;1.67;;
21999;SDS011;11164;48.818;2.322;2023-04-15T06:55:54;3.53;;;1.52;;
21999;SDS011;11164;48.818;2.322;2023-04-15T06:58:20;3.08;;;1.70;;
21999;SDS011;11164;48.818;2.322;2023-04-15T07:00:45;3.05;;;1.50;;
21999;SDS011;11164;48.818;2.322;2023-04-15T07:03:11;3.53;;;1.80;;
21999;SDS011;11164;48.818;2.322;2023-04-15T07:05:37;2.88;;;1.42;;
21999;SDS011;11164;48.818;2.322;2023-04-15T07:08:03;2.83;;;1.50;;
21999;SDS011;11164;48.818;2.322;2023-04-15T07:10:29;3.40;;;1.80;;
21999;SDS011;11164;48.818;2.322;2023-04-15T07:12:55;3.13;;;1.67;;
21999;SDS011;11164;48.818;2.322;2023-04-15T07:15:21;3.75;;;1.80;;
21999;SDS011;11164;48.818;2.322;2023-04-15T07:17:46;3.35;;;1.58;;
21999;SDS011;11164;48.818;2.322;2023-04-15T07:20:11;3.65;;;1.63;;
21999;SDS011;11164;48.818;2.322;2023-04-15T07:22:37;3.55;;;1.70;;
21999;SDS011;11164;48.818;2.322;2023-04-15T07:25:03;3.15;;;1.50;;
21999;SDS011;11164;48.818;2.322;2023-04-15T07:27:29;3.00;;;1.42;;
21999;SDS011;11164;48.818;2.322;2023-04-15T07:29:55;3.10;;;1.70;;
21999;SDS011;11164;48.818;2.322;2023-04-15T07:32:20;2.97;;;1.60;;
21999;SDS011;11164;48.818;2.322;2023-04-15T07:34:45;4.00;;;1.83;;
21999;SDS011;11164;48.818;2.322;2023-04-15T07:37:11;2.95;;;1.60;;
21999;SDS011;11164;48.818;2.322;2023-04-15T07:39:36;3.67;;;1.75;;
21999;SDS011;11164;48.818;2.322;2023-04-15T07:42:02;3.40;;;1.73;;
21999;SDS011;11164;48.818;2.322;2023-04-15T07:44:28;3.85;;;1.38;;
21999;SDS011;11164;48.818;2.322;2023-04-15T07:46:54;3.20;;;1.60;;
21999;SDS011;11164;48.818;2.322;2023-04-15T07:49:20;2.50;;;1.35;;
21999;SDS011;11164;48.818;2.322;2023-04-15T07:51:45;3.65;;;1.92;;
21999;SDS011;11164;48.818;2.322;2023-04-15T07:54:11;3.65;;;1.73;;
21999;SDS011;11164;48.818;2.322;2023-04-15T07:56:36;3.13;;;1.70;;
21999;SDS011;11164;48.818;2.322;2023-04-15T07:59:02;3.15;;;1.73;;
21999;SDS011;11164;48.818;2.322;2023-04-15T08:01:29;3.58;;;1.90;;
21999;SDS011;11164;48.818;2.322;2023-04-15T08:03:54;3.85;;;2.17;;
21999;SDS011;11164;48.818;2.322;2023-04-15T08:06:21;3.83;;;2.22;;
21999;SDS011;11164;48.818;2.322;2023-04-15T08:08:46;3.92;;;2.10;;
21999;SDS011;11164;48.818;2.322;2023-04-15T08:11:12;4.03;;;2.50;;
21999;SDS011;11164;48.818;2.322;2023-04-15T08:13:37;4.25;;;2.40;;
21999;SDS011;11164;48.818;2.322;2023-04-15T08:18:57;3.65;;;1.90;;
21999;SDS011;11164;48.818;2.322;2023-04-15T08:21:23;2.85;;;1.52;;
21999;SDS011;11164;48.818;2.322;2023-04-15T08:23:49;4.70;;;1.98;;
21999;SDS011;11164;48.818;2.322;2023-04-15T08:26:16;3.58;;;1.60;;
21999;SDS011;11164;48.818;2.322;2023-04-15T08:28:42;3.95;;;2.05;;
21999;SDS011;11164;48.818;2.322;2023-04-15T08:31:09;3.47;;;1.83;;
21999;SDS011;11164;48.818;2.322;2023-04-15T08:33:34;3.72;;;2.28;;
21999;SDS011;11164;48.818;2.322;2023-04-15T08:36:00;3.22;;;2.05;;
21999;SDS011;11164;48.818;2.322;2023-04-15T08:38:25;5.85;;;2.08;;
21999;SDS011;11164;48.818;2.322;2023-04-15T08:40:51;4.45;;;2.08;;
21999;SDS011;11164;48.818;2.322;2023-04-15T08:43:22;4.00;;;1.83;;
21999;SDS011;11164;48.818;2.322;2023-04-15T08:45:52;4.47;;;1.70;;
21999;SDS011;11164;48.818;2.322;2023-04-15T08:48:18;3.00;;;1.65;;
21999;SDS011;11164;48.818;2.322;2023-04-15T08:50:45;3.15;;;1.58;;
21999;SDS011;11164;48.818;2.322;2023-04-15T08:53:11;3.05;;;1.70;;
21999;SDS011;11164;48.818;2.322;2023-04-15T08:55:42;3.03;;;1.60;;
21999;SDS011;11164;48.818;2.322;2023-04-15T08:58:09;4.43;;;1.50;;
21999;SDS011;11164;48.818;2.322;2023-04-15T09:00:36;5.07;;;1.70;;
21999;SDS011;11164;48.818;2.322;2023-04-15T09:03:03;2.85;;;1.58;;
21999;SDS011;11164;48.818;2.322;2023-04-15T09:05:39;4.40;;;1.88;;
21999;SDS011;11164;48.818;2.322;2023-04-15T09:10:30;2.55;;;1.25;;
21999;SDS011;11164;48.818;2.322;2023-04-15T09:12:57;2.80;;;1.25;;
21999;SDS011;11164;48.818;2.322;2023-04-15T09:15:26;2.28;;;1.00;;
21999;SDS011;11164;48.818;2.322;2023-04-15T09:17:53;2.35;;;1.17;;
21999;SDS011;11164;48.818;2.322;2023-04-15T09:20:19;3.60;;;1.30;;
21999;SDS011;11164;48.818;2.322;2023-04-15T09:22:45;3.00;;;1.50;;
21999;SDS011;11164;48.818;2.322;2023-04-15T09:27:50;2.80;;;1.40;;
21999;SDS011;11164;48.818;2.322;2023-04-15T09:30:16;2.70;;;1.40;;
21999;SDS011;11164;48.818;2.322;2023-04-15T09:32:51;3.58;;;1.40;;
21999;SDS011;11164;48.818;2.322;2023-04-15T09:35:20;4.05;;;1.88;;
21999;SDS011;11164;48.818;2.322;2023-04-15T09:37:48;2.83;;;1.33;;
21999;SDS011;11164;48.818;2.322;2023-04-15T09:40:14;2.83;;;1.58;;
21999;SDS011;11164;48.818;2.322;2023-04-15T09:42:55;2.67;;;1.33;;
21999;SDS011;11164;48.818;2.322;2023-04-15T09:45:21;4.65;;;1.73;;
21999;SDS011;11164;48.818;2.322;2023-04-15T09:47:47;4.65;;;1.60;;
21999;SDS011;11164;48.818;2.322;2023-04-15T09:50:12;3.70;;;1.52;;
21999;SDS011;11164;48.818;2.322;2023-04-15T09:52:42;3.92;;;1.50;;
21999;SDS011;11164;48.818;2.322;2023-04-15T09:55:09;3.92;;;1.25;;
21999;SDS011;11164;48.818;2.322;2023-04-15T09:57:35;3.00;;;1.35;;
21999;SDS011;11164;48.818;2.322;2023-04-15T10:00:04;3.45;;;1.48;;
21999;SDS011;11164;48.818;2.322;2023-04-15T10:02:32;2.47;;;1.17;;
21999;SDS011;11164;48.818;2.322;2023-04-15T10:04:58;3.17;;;1.40;;
21999;SDS011;11164;48.818;2.322;2023-04-15T10:07:25;2.72;;;1.50;;
21999;SDS011;11164;48.818;2.322;2023-04-15T10:09:51;3.67;;;1.52;;
21999;SDS011;11164;48.818;2.322;2023-04-15T10:12:17;3.38;;;1.55;;
21999;SDS011;11164;48.818;2.322;2023-04-15T10:14:43;3.47;;;1.52;;
21999;SDS011;11164;48.818;2.322;2023-04-15T10:17:12;4.65;;;2.20;;
21999;SDS011;11164;48.818;2.322;2023-04-15T10:19:41;4.38;;;1.80;;
21999;SDS011;11164;48.818;2.322;2023-04-15T10:22:07;3.42;;;2.10;;
21999;SDS011;11164;48.818;2.322;2023-04-15T10:24:33;3.42;;;1.73;;
21999;SDS011;11164;48.818;2.322;2023-04-15T10:26:58;3.65;;;1.70;;
21999;SDS011;11164;48.818;2.322;2023-04-15T10:29:25;3.20;;;1.60;;
21999;SDS011;11164;48.818;2.322;2023-04-15T10:31:52;3.45;;;1.60;;
21999;SDS011;11164;48.818;2.322;2023-04-15T10:34:19;2.67;;;1.48;;
21999;SDS011;11164;48.818;2.322;2023-04-15T10:36:45;3.40;;;1.40;;
21999;SDS011;11164;48.818;2.322;2023-04-15T10:42:16;5.30;;;1.83;;
21999;SDS011;11164;48.818;2.322;2023-04-15T10:44:55;2.95;;;1.40;;
21999;SDS011;11164;48.818;2.322;2023-04-15T10:47:21;2.65;;;1.30;;
21999;SDS011;11164;48.818;2.322;2023-04-15T10:49:50;4.22;;;2.38;;
21999;SDS011;11164;48.818;2.322;2023-04-15T10:52:17;2.75;;;1.30;;
21999;SDS011;11164;48.818;2.322;2023-04-15T10:54:47;2.45;;;1.10;;
21999;SDS011;11164;48.818;2.322;2023-04-15T10:57:16;6.03;;;1.30;;
21999;SDS011;11164;48.818;2.322;2023-04-15T11:02:47;2.65;;;1.40;;
21999;SDS011;11164;48.818;2.322;2023-04-15T11:05:17;3.60;;;1.40;;
21999;SDS011;11164;48.818;2.322;2023-04-15T11:07:47;3.88;;;1.42;;
21999;SDS011;11164;48.818;2.322;2023-04-15T11:12:43;4.05;;;1.70;;
21999;SDS011;11164;48.818;2.322;2023-04-15T11:15:26;3.40;;;1.33;;
21999;SDS011;11164;48.818;2.322;2023-04-15T11:20:34;4.30;;;1.38;;
21999;SDS011;11164;48.818;2.322;2023-04-15T11:23:00;3.78;;;1.20;;
21999;SDS011;11164;48.818;2.322;2023-04-15T11:25:26;2.40;;;1.17;;
21999;SDS011;11164;48.818;2.322;2023-04-15T11:27:52;2.85;;;1.35;;
21999;SDS011;11164;48.818;2.322;2023-04-15T11:30:19;3.83;;;1.58;;
21999;SDS011;11164;48.818;2.322;2023-04-15T11:32:49;2.55;;;1.40;;
21999;SDS011;11164;48.818;2.322;2023-04-15T11:35:16;4.75;;;1.70;;
21999;SDS011;11164;48.818;2.322;2023-04-15T11:37:43;2.60;;;1.38;;
21999;SDS011;11164;48.818;2.322;2023-04-15T11:40:09;3.03;;;1.48;;
21999;SDS011;11164;48.818;2.322;2023-04-15T11:42:35;3.45;;;1.80;;
21999;SDS011;11164;48.818;2.322;2023-04-15T11:45:07;3.50;;;1.60;;
21999;SDS011;11164;48.818;2.322;2023-04-15T11:47:37;3.15;;;1.80;;
21999;SDS011;11164;48.818;2.322;2023-04-15T11:50:21;3.70;;;1.77;;
21999;SDS011;11164;48.818;2.322;2023-04-15T11:52:51;2.97;;;1.77;;
21999;SDS011;11164;48.818;2.322;2023-04-15T11:55:23;3.20;;;2.08;;
21999;SDS011;11164;48.818;2.322;2023-04-15T11:57:49;4.07;;;2.20;;
21999;SDS011;11164;48.818;2.322;2023-04-15T12:00:15;3.80;;;2.08;;
21999;SDS011;11164;48.818;2.322;2023-04-15T12:02:41;4.60;;;2.53;;
21999;SDS011;11164;48.818;2.322;2023-04-15T12:05:07;3.95;;;1.95;;
21999;SDS011;11164;48.818;2.322;2023-04-15T12:07:56;3.97;;;2.13;;
21999;SDS011;11164;48.818;2.322;2023-04-15T12:10:25;3.95;;;1.90;;
21999;SDS011;11164;48.818;2.322;2023-04-15T12:12:53;3.20;;;2.03;;
21999;SDS011;11164;48.818;2.322;2023-04-15T12:15:22;5.47;;;2.10;;
21999;SDS011;11164;48.818;2.322;2023-04-15T12:17:48;4.10;;;1.52;;
21999;SDS011;11164;48.818;2.322;2023-04-15T12:20:19;3.63;;;1.50;;
21999;SDS011;11164;48.818;2.322;2023-04-15T12:22:46;3.83;;;1.67;;
21999;SDS011;11164;48.818;2.322;2023-04-15T12:25:11;5.03;;;1.70;;
21999;SDS011;11164;48.818;2.322;2023-04-15T12:27:37;3.67;;;1.73;;
21999;SDS011;11164;48.818;2.322;2023-04-15T12:30:05;2.63;;;1.40;;
21999;SDS011;11164;48.818;2.322;2023-04-15T12:32:34;3.03;;;1.60;;
21999;SDS011;11164;48.818;2.322;2023-04-15T12:34:59;3.10;;;1.73;;
21999;SDS011;11164;48.818;2.322;2023-04-15T12:37:25;3.20;;;1.60;;
21999;SDS011;11164;48.818;2.322;2023-04-15T12:39:51;3.65;;;1.50;;
21999;SDS011;11164;48.818;2.322;2023-04-15T12:42:17;3.58;;;1.73;;
21999;SDS011;11164;48.818;2.322;2023-04-15T12:44:43;3.08;;;1.55;;
21999;SDS011;11164;48.818;2.322;2023-04-15T12:47:09;4.68;;;1.77;;
21999;SDS011;11164;48.818;2.322;2023-04-15T12:49:35;3.45;;;1.65;;
21999;SDS011;11164;48.818;2.322;2023-04-15T12:52:01;3.78;;;1.75;;
21999;SDS011;11164;48.818;2.322;2023-04-15T12:54:28;3.70;;;1.73;;
21999;SDS011;11164;48.818;2.322;2023-04-15T12:56:54;5.78;;;1.92;;
21999;SDS011;11164;48.818;2.322;2023-04-15T12:59:20;3.13;;;1.40;;
21999;SDS011;11164;48.818;2.322;2023-04-15T13:01:47;4.15;;;1.55;;
21999;SDS011;11164;48.818;2.322;2023-04-15T13:04:13;4.35;;;2.20;;
21999;SDS011;11164;48.818;2.322;2023-04-15T13:06:40;3.65;;;1.60;;
21999;SDS011;11164;48.818;2.322;2023-04-15T13:09:05;3.42;;;1.23;;
21999;SDS011;11164;48.818;2.322;2023-04-15T13:11:31;4.20;;;1.30;;
21999;SDS011;11164;48.818;2.322;2023-04-15T13:13:58;3.72;;;1.50;;
21999;SDS011;11164;48.818;2.322;2023-04-15T13:16:33;4.25;;;1.60;;
21999;SDS011;11164;48.818;2.322;2023-04-15T13:18:59;3.22;;;1.52;;
21999;SDS011;11164;48.818;2.322;2023-04-15T13:21:26;2.88;;;1.35;;
21999;SDS011;11164;48.818;2.322;2023-04-15T13:23:51;2.88;;;1.40;;
21999;SDS011;11164;48.818;2.322;2023-04-15T13:26:18;2.97;;;1.17;;
21999;SDS011;11164;48.818;2.322;2023-04-15T13:28:43;2.78;;;1.45;;
21999;SDS011;11164;48.818;2.322;2023-04-15T13:31:09;3.10;;;1.40;;
21999;SDS011;11164;48.818;2.322;2023-04-15T13:33:34;3.05;;;1.40;;
21999;SDS011;11164;48.818;2.322;2023-04-15T13:36:00;3.38;;;1.70;;
21999;SDS011;11164;48.818;2.322;2023-04-15T13:38:25;3.80;;;1.75;;
21999;SDS011;11164;48.818;2.322;2023-04-15T14:00:29;2.90;;;1.40;;
21999;SDS011;11164;48.818;2.322;2023-04-15T14:02:55;2.80;;;1.40;;
21999;SDS011;11164;48.818;2.322;2023-04-15T14:05:20;2.78;;;1.00;;
21999;SDS011;11164;48.818;2.322;2023-04-15T15:40:30;4.38;;;2.10;;
21999;SDS011;11164;48.818;2.322;2023-04-15T15:42:56;4.63;;;1.90;;
21999;SDS011;11164;48.818;2.322;2023-04-15T15:45:21;3.97;;;1.63;;
21999;SDS011;11164;48.818;2.322;2023-04-15T15:47:46;4.70;;;1.88;;
21999;SDS011;11164;48.818;2.322;2023-04-15T15:50:12;4.78;;;1.88;;
21999;SDS011;11164;48.818;2.322;2023-04-15T15:52:38;4.22;;;1.88;;
21999;SDS011;11164;48.818;2.322;2023-04-15T15:55:04;4.30;;;2.10;;
21999;SDS011;11164;48.818;2.322;2023-04-15T15:57:29;6.47;;;3.63;;
21999;SDS011;11164;48.818;2.322;2023-04-15T15:59:55;3.67;;;1.85;;
21999;SDS011;11164;48.818;2.322;2023-04-15T16:02:20;6.03;;;2.15;;
21999;SDS011;11164;48.818;2.322;2023-04-15T16:04:46;4.22;;;1.70;;
21999;SDS011;11164;48.818;2.322;2023-04-15T16:07:11;3.10;;;1.50;;
21999;SDS011;11164;48.818;2.322;2023-04-15T16:09:37;4.13;;;1.90;;
21999;SDS011;11164;48.818;2.322;2023-04-15T16:12:04;3.95;;;1.80;;
21999;SDS011;11164;48.818;2.322;2023-04-15T16:14:30;4.65;;;1.83;;
21999;SDS011;11164;48.818;2.322;2023-04-15T16:16:55;4.85;;;1.67;;
21999;SDS011;11164;48.818;2.322;2023-04-15T16:19:22;4.53;;;1.85;;
21999;SDS011;11164;48.818;2.322;2023-04-15T16:21:47;6.13;;;1.80;;
21999;SDS011;11164;48.818;2.322;2023-04-15T16:24:13;5.18;;;1.88;;
21999;SDS011;11164;48.818;2.322;2023-04-15T16:26:39;5.03;;;1.65;;
21999;SDS011;11164;48.818;2.322;2023-04-15T16:29:05;3.60;;;1.77;;
21999;SDS011;11164;48.818;2.322;2023-04-15T16:31:30;4.97;;;1.90;;
21999;SDS011;11164;48.818;2.322;2023-04-15T16:33:56;4.93;;;1.85;;
21999;SDS011;11164;48.818;2.322;2023-04-15T16:36:22;5.53;;;1.77;;
21999;SDS011;11164;48.818;2.322;2023-04-15T16:38:48;3.28;;;1.60;;
21999;SDS011;11164;48.818;2.322;2023-04-15T16:41:13;4.60;;;2.28;;
21999;SDS011;11164;48.818;2.322;2023-04-15T16:43:40;4.97;;;2.05;;
21999;SDS011;11164;48.818;2.322;2023-04-15T16:46:06;5.22;;;2.35;;
21999;SDS011;11164;48.818;2.322;2023-04-15T16:48:32;5.95;;;2.38;;
21999;SDS011;11164;48.818;2.322;2023-04-15T16:50:58;5.38;;;2.10;;